Terminal Aerodrome Forecast
Issued by NWS Pendleton, OR

Home | Current Version | Previous Version | Text Only | Print | Product List | Glossary On
Versions: 1 2 3 4 5 6 7 8 9 10 11 12 13
098
FTUS46 KPDT 301120
TAFPDT
TAF
KPDT 301120Z 3012/3112 23006KT P6SM BKN070
     FM301700 27006KT P6SM BKN250
     FM302000 36008KT P6SM SCT250
     FM310600 12006KT P6SM FEW200=

USA.gov is the U.S. government's official web portal to all federal, state and local government web resources and services.